createdAt,value
2018-12-15T00:03:22.492Z,102040.84
2018-12-15T00:08:15.735Z,102038.53
2018-12-15T00:13:08.916Z,102045.89
2018-12-15T00:18:02.190Z,102054.80
2018-12-15T00:22:55.377Z,102060.77
2018-12-15T00:27:48.791Z,102050.84
2018-12-15T00:32:42.060Z,102054.82
2018-12-15T00:37:35.258Z,102057.05
2018-12-15T00:42:31.448Z,102056.83
2018-12-15T00:47:24.726Z,102061.63
2018-12-15T00:52:17.911Z,102059.65
2018-12-15T00:57:12.489Z,102065.73
2018-12-15T01:02:05.784Z,102068.19
2018-12-15T01:06:59.211Z,102071.66
2018-12-15T01:11:52.498Z,102086.90
2018-12-15T01:16:46.011Z,102087.88
2018-12-15T01:21:39.373Z,102106.92
2018-12-15T01:26:33.109Z,102118.20
2018-12-15T01:31:26.337Z,102120.93
2018-12-15T01:36:19.591Z,102121.70
2018-12-15T01:41:12.815Z,102123.14
2018-12-15T01:46:06.053Z,102130.33
2018-12-15T01:50:59.504Z,102134.20
2018-12-15T01:55:53.082Z,102130.17
2018-12-15T02:00:46.606Z,102136.26
2018-12-15T02:05:39.851Z,102137.48
2018-12-15T02:10:33.043Z,102137.05
2018-12-15T02:15:26.333Z,102138.91
2018-12-15T02:20:19.589Z,102140.44
2018-12-15T02:25:14.013Z,102139.34
2018-12-15T02:30:07.952Z,102136.98
2018-12-15T02:35:01.259Z,102126.86
2018-12-15T02:39:54.579Z,102128.62
2018-12-15T02:44:47.840Z,102129.05
2018-12-15T02:49:41.452Z,102130.70
2018-12-15T02:54:34.815Z,102118.67
2018-12-15T02:59:27.999Z,102116.86
2018-12-15T03:04:21.412Z,102118.00
2018-12-15T03:09:14.963Z,102109.52
2018-12-15T03:14:08.150Z,102100.94
2018-12-15T03:19:11.027Z,102098.07
2018-12-15T03:24:04.227Z,102087.20
2018-12-15T03:28:57.431Z,102087.97
2018-12-15T03:33:51.444Z,102089.80
2018-12-15T03:38:44.645Z,102081.02
2018-12-15T03:43:38.047Z,102077.61
2018-12-15T03:48:31.209Z,102071.91
2018-12-15T03:53:24.388Z,102080.23
2018-12-15T03:58:17.575Z,102079.96
2018-12-15T04:03:10.896Z,102069.41
2018-12-15T04:08:04.134Z,102066.99
2018-12-15T04:12:57.324Z,102066.81
2018-12-15T04:17:50.509Z,102070.35
2018-12-15T04:22:44.749Z,102069.22
2018-12-15T04:27:37.937Z,102064.27
2018-12-15T04:32:31.128Z,102060.64
2018-12-15T04:37:24.342Z,102062.30
2018-12-15T04:42:17.559Z,102065.22
2018-12-15T04:47:12.252Z,102065.02
2018-12-15T04:52:05.462Z,102061.66
2018-12-15T04:56:58.674Z,102066.99
2018-12-15T05:01:51.849Z,102068.56
2018-12-15T05:06:45.052Z,102056.38
2018-12-15T05:11:38.283Z,102066.53
2018-12-15T05:16:31.504Z,102068.57
2018-12-15T05:21:24.710Z,102066.30
2018-12-15T05:26:17.891Z,102060.03
2018-12-15T05:31:12.180Z,102067.14
2018-12-15T05:36:05.361Z,102074.56
2018-12-15T05:41:00.201Z,102071.02
2018-12-15T05:45:53.403Z,102069.00
2018-12-15T05:50:46.624Z,102065.52
2018-12-15T05:55:40.321Z,102062.85
2018-12-15T06:00:33.537Z,102055.22
2018-12-15T06:05:27.053Z,102057.93
2018-12-15T06:10:20.254Z,102064.55
2018-12-15T06:15:13.584Z,102060.48
2018-12-15T06:20:07.512Z,102063.45
2018-12-15T06:25:00.690Z,102066.77
2018-12-15T06:29:53.904Z,102067.09
2018-12-15T06:34:48.325Z,102065.94
2018-12-15T06:39:41.536Z,102071.41
2018-12-15T06:44:34.769Z,102074.13
2018-12-15T06:49:28.289Z,102075.84
2018-12-15T06:54:22.293Z,102076.04
2018-12-15T06:59:16.132Z,102086.78
2018-12-15T07:04:09.356Z,102086.56
2018-12-15T07:09:03.442Z,102072.30
2018-12-15T07:13:56.632Z,102063.03
2018-12-15T07:18:50.125Z,102062.97
2018-12-15T07:23:43.454Z,102058.07
2018-12-15T07:28:36.774Z,102057.57
2018-12-15T07:33:29.956Z,102058.17
2018-12-15T07:38:23.234Z,102056.84
2018-12-15T07:43:16.415Z,102050.09
2018-12-15T07:48:09.599Z,102053.02
2018-12-15T07:53:02.823Z,102059.17
2018-12-15T07:57:56.001Z,102058.05
2018-12-15T08:02:49.196Z,102058.42
2018-12-15T08:07:42.530Z,102060.45
2018-12-15T08:12:38.699Z,102060.36
2018-12-15T08:17:31.924Z,102071.80
2018-12-15T08:22:26.287Z,102078.41
2018-12-15T08:27:19.678Z,102081.17
2018-12-15T08:32:13.053Z,102077.35
2018-12-15T08:37:06.474Z,102069.03
2018-12-15T08:41:59.677Z,102068.05
2018-12-15T08:46:52.890Z,102073.83
2018-12-15T08:51:46.056Z,102084.23
2018-12-15T08:56:39.375Z,102081.28
2018-12-15T09:01:32.667Z,102085.31
2018-12-15T09:06:25.917Z,102083.50
2018-12-15T09:11:19.873Z,102085.48
2018-12-15T09:16:13.835Z,102087.14
2018-12-15T09:21:07.252Z,102091.64
2018-12-15T09:26:00.475Z,102094.63
2018-12-15T09:30:53.805Z,102102.66
2018-12-15T09:35:47.151Z,102103.17
2018-12-15T09:40:40.428Z,102102.41
2018-12-15T09:45:33.939Z,102098.91
2018-12-15T09:50:27.375Z,102099.16
2018-12-15T09:55:20.720Z,102092.34
2018-12-15T10:00:14.420Z,102087.17
2018-12-15T10:05:07.826Z,102077.09
2018-12-15T10:10:01.028Z,102071.21
2018-12-15T10:14:55.319Z,102071.23
2018-12-15T10:19:50.035Z,102069.08
2018-12-15T10:24:43.242Z,102065.59
2018-12-15T10:29:42.049Z,102047.93
2018-12-15T10:34:35.272Z,102036.53
2018-12-15T10:39:28.542Z,102032.08
2018-12-15T10:44:21.730Z,102024.19
2018-12-15T10:49:15.475Z,102017.55
2018-12-15T10:54:08.786Z,102012.65
2018-12-15T10:59:02.686Z,102003.41
2018-12-15T11:04:00.758Z,101990.59
2018-12-15T11:08:51.300Z,101980.95
2018-12-15T11:13:45.367Z,101979.14
2018-12-15T11:18:38.657Z,101962.92
2018-12-15T11:23:32.198Z,101969.59
2018-12-15T11:28:25.583Z,101971.50
2018-12-15T11:33:18.853Z,101959.48
2018-12-15T11:38:12.098Z,101955.93
2018-12-15T11:43:05.463Z,101938.84
2018-12-15T11:47:58.667Z,101920.34
2018-12-15T11:52:51.946Z,101915.84
2018-12-15T11:57:45.128Z,101899.73
2018-12-15T12:02:39.452Z,101888.04
2018-12-15T12:07:32.701Z,101879.00
2018-12-15T12:12:26.937Z,101876.52
2018-12-15T12:17:20.172Z,101874.91
2018-12-15T12:22:13.595Z,101870.55
2018-12-15T12:27:06.810Z,101874.71
2018-12-15T12:32:01.730Z,101864.38
2018-12-15T12:36:54.983Z,101857.45
2018-12-15T12:41:55.385Z,101862.55
2018-12-15T12:46:49.096Z,101860.80
2018-12-15T12:51:42.790Z,101864.48
2018-12-15T12:56:36.018Z,101869.59
2018-12-15T13:01:29.396Z,101860.38
2018-12-15T13:06:22.604Z,101855.70
2018-12-15T13:11:16.184Z,101838.48
2018-12-15T13:16:09.452Z,101848.66
2018-12-15T13:21:02.703Z,101849.06
2018-12-15T13:25:55.933Z,101840.23
2018-12-15T13:30:49.105Z,101859.84
2018-12-15T13:35:42.359Z,101845.91
2018-12-15T13:40:35.689Z,101849.88
2018-12-15T13:45:29.313Z,101849.54
2018-12-15T13:50:22.580Z,101850.66
2018-12-15T13:55:15.797Z,101843.57
2018-12-15T14:00:09.293Z,101833.97
2018-12-15T14:05:02.716Z,101813.80
2018-12-15T14:09:55.951Z,101798.03
2018-12-15T14:14:49.275Z,101800.48
2018-12-15T14:19:42.449Z,101793.64
2018-12-15T14:24:35.727Z,101780.31
2018-12-15T14:29:28.925Z,101765.67
2018-12-15T14:34:22.086Z,101761.25
2018-12-15T14:39:15.303Z,101759.92
2018-12-15T14:44:09.139Z,101751.14
2018-12-15T14:49:02.897Z,101734.70
2018-12-15T14:53:56.119Z,101729.29
2018-12-15T14:58:49.385Z,101724.52
2018-12-15T15:03:42.603Z,101714.09
2018-12-15T15:08:35.813Z,101704.77
2018-12-15T15:13:34.546Z,101694.72
2018-12-15T15:18:24.415Z,101675.13
2018-12-15T15:23:17.703Z,101672.91
2018-12-15T15:28:10.947Z,101677.13
2018-12-15T15:33:04.243Z,101677.86
2018-12-15T15:37:57.514Z,101662.70
2018-12-15T15:42:51.679Z,101662.06
2018-12-15T15:47:44.974Z,101641.90
2018-12-15T15:52:38.338Z,101619.28
2018-12-15T15:57:32.659Z,101639.98
2018-12-15T16:02:26.108Z,101631.17
2018-12-15T16:07:19.365Z,101635.62
2018-12-15T16:12:12.648Z,101628.71
2018-12-15T16:17:06.104Z,101627.03
2018-12-15T16:21:59.359Z,101633.00
2018-12-15T16:26:52.569Z,101632.53
2018-12-15T16:31:46.448Z,101615.22
2018-12-15T16:36:39.729Z,101619.84
2018-12-15T16:41:32.934Z,101608.78
2018-12-15T16:46:26.123Z,101603.53
2018-12-15T16:51:19.688Z,101597.37
2018-12-15T16:56:12.885Z,101607.75
2018-12-15T17:01:06.810Z,101601.14
2018-12-15T17:06:00.074Z,101600.43
2018-12-15T17:10:53.324Z,101588.29
2018-12-15T17:15:46.525Z,101568.54
2018-12-15T17:20:39.720Z,101573.64
2018-12-15T17:25:33.474Z,101571.67
2018-12-15T17:30:26.981Z,101559.89
2018-12-15T17:35:20.827Z,101543.72
2018-12-15T17:40:15.068Z,101535.52
2018-12-15T17:45:08.958Z,101531.23
2018-12-15T17:50:02.235Z,101514.34
2018-12-15T17:54:56.172Z,101512.06
2018-12-15T17:59:49.537Z,101484.43
2018-12-15T18:04:42.851Z,101457.09
2018-12-15T18:09:36.066Z,101455.16
2018-12-15T18:14:29.359Z,101447.36
2018-12-15T18:19:23.125Z,101427.09
2018-12-15T18:24:16.340Z,101412.86
2018-12-15T18:29:09.526Z,101421.38
2018-12-15T18:34:02.778Z,101412.27
2018-12-15T18:38:56.076Z,101409.87
2018-12-15T18:43:49.305Z,101411.52
2018-12-15T18:48:42.763Z,101397.19
2018-12-15T18:53:36.353Z,101395.19
2018-12-15T18:58:29.622Z,101367.92
2018-12-15T19:03:23.265Z,101364.42
2018-12-15T19:08:16.619Z,101369.75
2018-12-15T19:13:09.853Z,101371.44
2018-12-15T19:18:03.181Z,101355.77
2018-12-15T19:22:56.408Z,101367.66
2018-12-15T19:27:49.622Z,101366.91
2018-12-15T19:32:43.965Z,101356.23
2018-12-15T19:37:37.710Z,101342.80
2018-12-15T19:42:30.969Z,101321.31
2018-12-15T19:47:24.153Z,101334.29
2018-12-15T19:52:17.410Z,101301.69
2018-12-15T19:57:10.646Z,101302.12
2018-12-15T20:02:03.890Z,101300.18
2018-12-15T20:06:57.145Z,101298.83
2018-12-15T20:11:50.373Z,101287.47
2018-12-15T20:16:43.722Z,101275.40
2018-12-15T20:21:36.927Z,101279.70
2018-12-15T20:26:30.239Z,101263.69
2018-12-15T20:31:23.495Z,101256.21
2018-12-15T20:36:16.721Z,101246.63
2018-12-15T20:41:09.981Z,101230.80
2018-12-15T20:46:03.353Z,101231.61
2018-12-15T20:50:56.609Z,101237.38
2018-12-15T20:55:50.333Z,101221.55
2018-12-15T21:00:43.543Z,101218.38
2018-12-15T21:05:36.941Z,101221.47
2018-12-15T21:10:30.284Z,101198.86
2018-12-15T21:15:28.935Z,101188.19
2018-12-15T21:20:22.147Z,101189.27
2018-12-15T21:25:15.368Z,101166.45
2018-12-15T21:30:10.407Z,101163.35
2018-12-15T21:35:04.425Z,101168.48
2018-12-15T21:39:57.655Z,101129.86
2018-12-15T21:44:50.895Z,101133.89
2018-12-15T21:49:44.375Z,101114.85
2018-12-15T21:54:37.644Z,101103.41
2018-12-15T21:59:31.041Z,101081.53
2018-12-15T22:04:24.249Z,101075.48
2018-12-15T22:09:17.590Z,101053.06
2018-12-15T22:14:10.838Z,101027.71
2018-12-15T22:19:04.048Z,101002.27
2018-12-15T22:23:57.279Z,100990.55
2018-12-15T22:28:50.520Z,100978.94
2018-12-15T22:33:43.761Z,100986.37
2018-12-15T22:38:36.952Z,100970.06
2018-12-15T22:43:30.637Z,100954.66
2018-12-15T22:48:23.899Z,100959.48
2018-12-15T22:53:17.161Z,100957.17
2018-12-15T22:58:10.797Z,100941.22
2018-12-15T23:03:04.457Z,100927.27
2018-12-15T23:07:58.397Z,100927.45
2018-12-15T23:12:51.638Z,100925.63
2018-12-15T23:17:44.870Z,100931.45
2018-12-15T23:22:38.108Z,100926.00
2018-12-15T23:27:31.362Z,100922.70
2018-12-15T23:32:24.607Z,100936.64
2018-12-15T23:37:17.843Z,100934.63
2018-12-15T23:42:11.169Z,100936.48
2018-12-15T23:47:04.520Z,100954.58
2018-12-15T23:51:57.853Z,100962.37
2018-12-15T23:56:51.069Z,100976.36
